CPA484 VHHH-RCTP
Flight info
| Callsign | CPA484 |
|---|---|
| Flight time | N/A |
| Altitude | 37000 |
| Route | DALOL V631 ENVAR M750 EXTRA/N0508F290 M750 TONGA TONGA1B |
| Aircraft | B77W/H-SDE1E2E3FGHIJ2J3J4J5M1RWXY/LB1D1 |
Departure
| Time | 2026-05-07 16:33 |
|---|---|
| Airport | Hong Kong International Airport (VHHH) |
Arrival
| Time | N/A |
|---|---|
| Airport | Taiwan Taoyuan International Airport (RCTP) |
| Time | Latitude | Longitude | Altitude | Speed | Heading |
|---|---|---|---|---|---|
| 2026-05-07 16:09 | 22.30951 | 113.92490 | 41 ft | 0 kts | 114° |
| 2026-05-07 16:16 | 22.30952 | 113.92487 | 41 ft | 2 kts | 114° |
| 2026-05-07 16:17 | 22.30958 | 113.92472 | 41 ft | 2 kts | 115° |
| 2026-05-07 16:17 | 22.30966 | 113.92458 | 41 ft | 2 kts | 129° |
| 2026-05-07 16:17 | 22.30976 | 113.92447 | 41 ft | 2 kts | 142° |
| 2026-05-07 16:17 | 22.30989 | 113.92438 | 41 ft | 2 kts | 154° |
| 2026-05-07 16:18 | 22.31002 | 113.92432 | 41 ft | 2 kts | 166° |
| 2026-05-07 16:18 | 22.31018 | 113.92430 | 41 ft | 2 kts | 179° |
| 2026-05-07 16:18 | 22.31033 | 113.92432 | 41 ft | 2 kts | 191° |
| 2026-05-07 16:18 | 22.31047 | 113.92436 | 41 ft | 1 kts | 203° |
| 2026-05-07 16:19 | 22.31051 | 113.92438 | 41 ft | 0 kts | 206° |
| 2026-05-07 16:22 | 22.31050 | 113.92437 | 41 ft | 0 kts | 206° |
| 2026-05-07 16:23 | 22.31040 | 113.92432 | 41 ft | 3 kts | 206° |
| 2026-05-07 16:23 | 22.31000 | 113.92411 | 41 ft | 8 kts | 206° |
| 2026-05-07 16:23 | 22.30943 | 113.92381 | 41 ft | 10 kts | 206° |
| 2026-05-07 16:23 | 22.30919 | 113.92371 | 41 ft | 0 kts | 188° |
| 2026-05-07 16:24 | 22.30903 | 113.92365 | 41 ft | 4 kts | 205° |
| 2026-05-07 16:24 | 22.30897 | 113.92362 | 41 ft | 0 kts | 203° |
| 2026-05-07 16:24 | 22.30887 | 113.92355 | 41 ft | 3 kts | 219° |
| 2026-05-07 16:24 | 22.30879 | 113.92318 | 41 ft | 7 kts | 291° |
| 2026-05-07 16:25 | 22.30933 | 113.92277 | 41 ft | 11 kts | 338° |
| 2026-05-07 16:25 | 22.31011 | 113.92245 | 41 ft | 12 kts | 341° |
| 2026-05-07 16:25 | 22.31095 | 113.92215 | 41 ft | 12 kts | 341° |
| 2026-05-07 16:25 | 22.31182 | 113.92183 | 41 ft | 13 kts | 341° |
| 2026-05-07 16:26 | 22.31274 | 113.92149 | 41 ft | 14 kts | 341° |
| 2026-05-07 16:26 | 22.31369 | 113.92115 | 41 ft | 14 kts | 341° |
| 2026-05-07 16:26 | 22.31445 | 113.92087 | 41 ft | 11 kts | 341° |
| 2026-05-07 16:26 | 22.31497 | 113.92068 | 41 ft | 12 kts | 342° |
| 2026-05-07 16:27 | 22.31600 | 113.92017 | 41 ft | 12 kts | 302° |
| 2026-05-07 16:27 | 22.31593 | 113.91922 | 41 ft | 13 kts | 250° |
| 2026-05-07 16:27 | 22.31561 | 113.91824 | 41 ft | 14 kts | 250° |
| 2026-05-07 16:27 | 22.31527 | 113.91721 | 41 ft | 14 kts | 251° |
| 2026-05-07 16:28 | 22.31492 | 113.91613 | 41 ft | 15 kts | 250° |
| 2026-05-07 16:28 | 22.31455 | 113.91501 | 41 ft | 16 kts | 250° |
| 2026-05-07 16:28 | 22.31417 | 113.91386 | 41 ft | 16 kts | 250° |
| 2026-05-07 16:28 | 22.31379 | 113.91266 | 41 ft | 16 kts | 251° |
| 2026-05-07 16:29 | 22.31340 | 113.91144 | 41 ft | 17 kts | 250° |
| 2026-05-07 16:29 | 22.31299 | 113.91020 | 41 ft | 17 kts | 251° |
| 2026-05-07 16:29 | 22.31259 | 113.90894 | 41 ft | 17 kts | 250° |
| 2026-05-07 16:29 | 22.31216 | 113.90769 | 41 ft | 17 kts | 252° |
| 2026-05-07 16:30 | 22.31178 | 113.90639 | 41 ft | 18 kts | 252° |
| 2026-05-07 16:30 | 22.31137 | 113.90511 | 41 ft | 18 kts | 250° |
| 2026-05-07 16:30 | 22.31093 | 113.90379 | 41 ft | 18 kts | 250° |
| 2026-05-07 16:30 | 22.31069 | 113.90305 | 41 ft | 18 kts | 252° |
| 2026-05-07 16:31 | 22.31056 | 113.90261 | 41 ft | 18 kts | 252° |
| 2026-05-07 16:31 | 22.31014 | 113.90128 | 41 ft | 18 kts | 251° |
| 2026-05-07 16:31 | 22.30970 | 113.89993 | 41 ft | 18 kts | 250° |
| 2026-05-07 16:31 | 22.30926 | 113.89858 | 41 ft | 19 kts | 251° |
| 2026-05-07 16:32 | 22.30901 | 113.89782 | 41 ft | 10 kts | 251° |
| 2026-05-07 16:32 | 22.30905 | 113.89708 | 41 ft | 10 kts | 317° |
| 2026-05-07 16:32 | 22.30978 | 113.89671 | 41 ft | 12 kts | 339° |
| 2026-05-07 16:32 | 22.31051 | 113.89677 | 41 ft | 11 kts | 56° |
| 2026-05-07 16:33 | 22.31084 | 113.89771 | 41 ft | 19 kts | 71° |
| 2026-05-07 16:33 | 22.31214 | 113.90173 | 41 ft | 102 kts | 71° |
| 2026-05-07 16:33 | 22.31526 | 113.91139 | 278 ft | 157 kts | 71° |
| 2026-05-07 16:33 | 22.31891 | 113.92246 | 1248 ft | 159 kts | 73° |
| 2026-05-07 16:34 | 22.32240 | 113.93349 | 1966 ft | 164 kts | 73° |
| 2026-05-07 16:34 | 22.32624 | 113.94559 | 2543 ft | 179 kts | 72° |
| 2026-05-07 16:34 | 22.33048 | 113.95875 | 3137 ft | 194 kts | 72° |
| 2026-05-07 16:34 | 22.33438 | 113.97327 | 3718 ft | 209 kts | 80° |
| 2026-05-07 16:35 | 22.33705 | 113.98956 | 4342 ft | 228 kts | 81° |
| 2026-05-07 16:35 | 22.33983 | 114.00685 | 5040 ft | 244 kts | 80° |
| 2026-05-07 16:35 | 22.34288 | 114.02559 | 5753 ft | 261 kts | 81° |
| 2026-05-07 16:35 | 22.34377 | 114.04543 | 6413 ft | 278 kts | 98° |
| 2026-05-07 16:36 | 22.33681 | 114.06524 | 7276 ft | 286 kts | 125° |
| 2026-05-07 16:36 | 22.32235 | 114.07972 | 8125 ft | 292 kts | 150° |
| 2026-05-07 16:36 | 22.30336 | 114.08768 | 9094 ft | 292 kts | 169° |
| 2026-05-07 16:36 | 22.28327 | 114.08907 | 9961 ft | 296 kts | 184° |
| 2026-05-07 16:37 | 22.26216 | 114.08784 | 10686 ft | 309 kts | 184° |
| 2026-05-07 16:37 | 22.23987 | 114.08706 | 11328 ft | 327 kts | 181° |
| 2026-05-07 16:37 | 22.21669 | 114.08913 | 11989 ft | 345 kts | 172° |
| 2026-05-07 16:37 | 22.19290 | 114.09574 | 12664 ft | 363 kts | 162° |
| 2026-05-07 16:38 | 22.16918 | 114.10757 | 13376 ft | 381 kts | 151° |
| 2026-05-07 16:38 | 22.14711 | 114.12467 | 14082 ft | 399 kts | 139° |
| 2026-05-07 16:38 | 22.12829 | 114.14641 | 14787 ft | 416 kts | 128° |
| 2026-05-07 16:38 | 22.11306 | 114.17361 | 15655 ft | 428 kts | 116° |
| 2026-05-07 16:39 | 22.10062 | 114.20291 | 16660 ft | 434 kts | 115° |
| 2026-05-07 16:39 | 22.08763 | 114.23229 | 17623 ft | 440 kts | 118° |
| 2026-05-07 16:39 | 22.07072 | 114.25994 | 18537 ft | 446 kts | 129° |
| 2026-05-07 16:39 | 22.04907 | 114.28474 | 19396 ft | 453 kts | 139° |
| 2026-05-07 16:40 | 22.02404 | 114.30573 | 20231 ft | 459 kts | 145° |
| 2026-05-07 16:40 | 21.99777 | 114.32606 | 21056 ft | 466 kts | 145° |
| 2026-05-07 16:40 | 21.97126 | 114.34657 | 21889 ft | 471 kts | 145° |
| 2026-05-07 16:40 | 21.94403 | 114.36774 | 22685 ft | 478 kts | 144° |
| 2026-05-07 16:41 | 21.91670 | 114.38907 | 23507 ft | 483 kts | 144° |
| 2026-05-07 16:41 | 21.89258 | 114.40910 | 24176 ft | 489 kts | 139° |
| 2026-05-07 16:41 | 21.86960 | 114.43407 | 24862 ft | 496 kts | 130° |
| 2026-05-07 16:41 | 21.84888 | 114.46470 | 25629 ft | 502 kts | 121° |
| 2026-05-07 16:42 | 21.83264 | 114.49854 | 26389 ft | 508 kts | 112° |
| 2026-05-07 16:42 | 21.82125 | 114.53478 | 27153 ft | 513 kts | 104° |
| 2026-05-07 16:42 | 21.81213 | 114.57219 | 27909 ft | 519 kts | 103° |
| 2026-05-07 16:42 | 21.80292 | 114.61025 | 28651 ft | 525 kts | 103° |
| 2026-05-07 16:43 | 21.79351 | 114.64843 | 29452 ft | 530 kts | 104° |
| 2026-05-07 16:43 | 21.78581 | 114.67924 | 30237 ft | 530 kts | 104° |
| 2026-05-07 16:43 | 21.77528 | 114.72098 | 31505 ft | 526 kts | 104° |
| 2026-05-07 16:43 | 21.76571 | 114.75860 | 32668 ft | 522 kts | 104° |
| 2026-05-07 16:44 | 21.75598 | 114.79658 | 33822 ft | 519 kts | 104° |
| 2026-05-07 16:44 | 21.74736 | 114.83476 | 34863 ft | 515 kts | 98° |
| 2026-05-07 16:44 | 21.74375 | 114.87277 | 35801 ft | 512 kts | 90° |
| 2026-05-07 16:44 | 21.74338 | 114.91161 | 36675 ft | 512 kts | 88° |
| 2026-05-07 16:45 | 21.74341 | 114.94994 | 36924 ft | 515 kts | 88° |
| 2026-05-07 16:45 | 21.74348 | 115.02689 | 36928 ft | 510 kts | 88° |
| 2026-05-07 16:46 | 21.74349 | 115.10405 | 36926 ft | 511 kts | 88° |
| 2026-05-07 16:46 | 21.74343 | 115.18038 | 36925 ft | 511 kts | 88° |
| 2026-05-07 16:47 | 21.74333 | 115.25717 | 36927 ft | 512 kts | 88° |
| 2026-05-07 16:47 | 21.74318 | 115.33304 | 36925 ft | 510 kts | 88° |
| 2026-05-07 16:48 | 21.74299 | 115.40963 | 36928 ft | 510 kts | 88° |
| 2026-05-07 16:48 | 21.74276 | 115.48553 | 36926 ft | 510 kts | 88° |
| 2026-05-07 16:49 | 21.74250 | 115.56169 | 36927 ft | 511 kts | 88° |
| 2026-05-07 16:49 | 21.74223 | 115.63791 | 36925 ft | 510 kts | 88° |
| 2026-05-07 16:50 | 21.74193 | 115.71402 | 36921 ft | 511 kts | 88° |
| 2026-05-07 16:50 | 21.74160 | 115.79019 | 36924 ft | 511 kts | 88° |
| 2026-05-07 16:51 | 21.74123 | 115.86651 | 36919 ft | 510 kts | 88° |
| 2026-05-07 16:51 | 21.74082 | 115.94287 | 36921 ft | 511 kts | 88° |
| 2026-05-07 16:52 | 21.74038 | 116.01884 | 36916 ft | 510 kts | 88° |
| 2026-05-07 16:52 | 21.73991 | 116.09518 | 36909 ft | 510 kts | 88° |
| 2026-05-07 16:53 | 21.73940 | 116.17103 | 36909 ft | 510 kts | 88° |
| 2026-05-07 16:53 | 21.73886 | 116.24731 | 36909 ft | 510 kts | 88° |
| 2026-05-07 16:54 | 21.73828 | 116.32341 | 36911 ft | 510 kts | 88° |
| 2026-05-07 16:54 | 21.73767 | 116.39922 | 36910 ft | 510 kts | 88° |
| 2026-05-07 16:55 | 21.73702 | 116.47540 | 36911 ft | 510 kts | 88° |
| 2026-05-07 16:55 | 21.73634 | 116.55135 | 36912 ft | 510 kts | 88° |
| 2026-05-07 16:56 | 21.73562 | 116.62762 | 36912 ft | 509 kts | 88° |
| 2026-05-07 16:56 | 21.73464 | 116.74179 | 36901 ft | 509 kts | 85° |
| 2026-05-07 16:57 | 21.74593 | 116.81610 | 36906 ft | 502 kts | 69° |
| 2026-05-07 16:57 | 21.77023 | 116.88555 | 36907 ft | 500 kts | 65° |
| 2026-05-07 16:58 | 21.79552 | 116.95503 | 36908 ft | 500 kts | 65° |
| 2026-05-07 16:58 | 21.82088 | 117.02501 | 36906 ft | 500 kts | 65° |
| 2026-05-07 16:59 | 21.84590 | 117.09420 | 36909 ft | 500 kts | 65° |
| 2026-05-07 16:59 | 21.87096 | 117.16368 | 36913 ft | 499 kts | 65° |
| 2026-05-07 17:00 | 21.89612 | 117.23357 | 36919 ft | 499 kts | 65° |
| 2026-05-07 17:00 | 21.92110 | 117.30305 | 36923 ft | 500 kts | 65° |
| 2026-05-07 17:01 | 21.94610 | 117.37272 | 36925 ft | 500 kts | 65° |
| 2026-05-07 17:01 | 21.97111 | 117.44253 | 36928 ft | 501 kts | 65° |
| 2026-05-07 17:02 | 21.99815 | 117.51086 | 36930 ft | 494 kts | 56° |
| 2026-05-07 17:02 | 22.03355 | 117.57399 | 36931 ft | 494 kts | 54° |
| 2026-05-07 17:03 | 22.06941 | 117.63700 | 36931 ft | 495 kts | 54° |
| 2026-05-07 17:03 | 22.10499 | 117.69963 | 36929 ft | 494 kts | 54° |
| 2026-05-07 17:04 | 22.14087 | 117.76293 | 36931 ft | 494 kts | 54° |
| 2026-05-07 17:04 | 22.17683 | 117.82645 | 36933 ft | 495 kts | 54° |
| 2026-05-07 17:05 | 22.21260 | 117.88972 | 36929 ft | 496 kts | 54° |
| 2026-05-07 17:05 | 22.24843 | 117.95320 | 36929 ft | 495 kts | 54° |
| 2026-05-07 17:06 | 22.28433 | 118.01675 | 36916 ft | 497 kts | 53° |
| 2026-05-07 17:06 | 22.32104 | 118.07959 | 36917 ft | 495 kts | 53° |
| 2026-05-07 17:07 | 22.35766 | 118.14226 | 36918 ft | 494 kts | 53° |
| 2026-05-07 17:07 | 22.39436 | 118.20519 | 36917 ft | 495 kts | 53° |
| 2026-05-07 17:08 | 22.43055 | 118.26839 | 36921 ft | 498 kts | 54° |
| 2026-05-07 17:08 | 22.46662 | 118.33215 | 36922 ft | 497 kts | 54° |
| 2026-05-07 17:09 | 22.50265 | 118.39587 | 36921 ft | 499 kts | 54° |
| 2026-05-07 17:09 | 22.53881 | 118.45988 | 36923 ft | 499 kts | 54° |
| 2026-05-07 17:10 | 22.57475 | 118.52355 | 36922 ft | 497 kts | 54° |
| 2026-05-07 17:10 | 22.61130 | 118.58766 | 36923 ft | 499 kts | 54° |
| 2026-05-07 17:11 | 22.64754 | 118.65128 | 36928 ft | 499 kts | 54° |
| 2026-05-07 17:11 | 22.68401 | 118.71539 | 36918 ft | 499 kts | 54° |
| 2026-05-07 17:12 | 22.72037 | 118.77940 | 36922 ft | 501 kts | 54° |
| 2026-05-07 17:12 | 22.75677 | 118.84356 | 36919 ft | 501 kts | 54° |
| 2026-05-07 17:13 | 22.79327 | 118.90800 | 36911 ft | 500 kts | 54° |
| 2026-05-07 17:13 | 22.82607 | 118.96594 | 36908 ft | 502 kts | 54° |
| 2026-05-07 17:14 | 22.86259 | 119.03057 | 36907 ft | 501 kts | 54° |
| 2026-05-07 17:14 | 22.89880 | 119.09470 | 36906 ft | 502 kts | 54° |
| 2026-05-07 17:15 | 22.93520 | 119.15926 | 36908 ft | 504 kts | 54° |
| 2026-05-07 17:15 | 22.97163 | 119.22396 | 36908 ft | 502 kts | 54° |
| 2026-05-07 17:16 | 23.00793 | 119.28851 | 36908 ft | 502 kts | 54° |
| 2026-05-07 17:16 | 23.04433 | 119.35332 | 36909 ft | 500 kts | 54° |
| 2026-05-07 17:17 | 23.08075 | 119.41824 | 36909 ft | 501 kts | 54° |
| 2026-05-07 17:17 | 23.11692 | 119.48281 | 36915 ft | 501 kts | 54° |
| 2026-05-07 17:18 | 23.14892 | 119.53979 | 36910 ft | 498 kts | 52° |
| 2026-05-07 17:18 | 23.17827 | 119.58006 | 36911 ft | 494 kts | 40° |
| 2026-05-07 17:19 | 23.23142 | 119.62524 | 36914 ft | 480 kts | 25° |
| 2026-05-07 17:19 | 23.28966 | 119.66193 | 36912 ft | 480 kts | 25° |
| 2026-05-07 17:20 | 23.33148 | 119.68817 | 36916 ft | 479 kts | 25° |
| 2026-05-07 17:20 | 23.38938 | 119.72458 | 36918 ft | 479 kts | 25° |
| 2026-05-07 17:21 | 23.44703 | 119.76090 | 36920 ft | 479 kts | 25° |
| 2026-05-07 17:21 | 23.50452 | 119.79787 | 36920 ft | 481 kts | 27° |
| 2026-05-07 17:22 | 23.56113 | 119.83707 | 36918 ft | 483 kts | 27° |
| 2026-05-07 17:22 | 23.61811 | 119.87650 | 36915 ft | 482 kts | 27° |
| 2026-05-07 17:23 | 23.67444 | 119.91544 | 36914 ft | 480 kts | 27° |
| 2026-05-07 17:23 | 23.73152 | 119.95488 | 36910 ft | 483 kts | 27° |
| 2026-05-07 17:24 | 23.78833 | 119.99415 | 36908 ft | 482 kts | 27° |
| 2026-05-07 17:24 | 23.84430 | 120.03287 | 36915 ft | 483 kts | 27° |
| 2026-05-07 17:25 | 23.90139 | 120.07242 | 36909 ft | 485 kts | 27° |
| 2026-05-07 17:25 | 23.95857 | 120.11208 | 36919 ft | 483 kts | 27° |
| 2026-05-07 17:26 | 24.01527 | 120.15143 | 36917 ft | 482 kts | 27° |
| 2026-05-07 17:26 | 24.07175 | 120.19066 | 36928 ft | 483 kts | 27° |
| 2026-05-07 17:27 | 24.12872 | 120.23026 | 36939 ft | 481 kts | 27° |
| 2026-05-07 17:27 | 24.18616 | 120.27026 | 36717 ft | 475 kts | 27° |
| 2026-05-07 17:28 | 24.21280 | 120.28883 | 35968 ft | 475 kts | 27° |
| 2026-05-07 17:28 | 24.24093 | 120.30841 | 35099 ft | 477 kts | 27° |
| 2026-05-07 17:28 | 24.26910 | 120.32805 | 34249 ft | 477 kts | 27° |
| 2026-05-07 17:28 | 24.29355 | 120.34509 | 33521 ft | 483 kts | 28° |
| 2026-05-07 17:29 | 24.32327 | 120.36578 | 32626 ft | 507 kts | 28° |
| 2026-05-07 17:29 | 24.35148 | 120.38547 | 31760 ft | 511 kts | 28° |
| 2026-05-07 17:29 | 24.37819 | 120.40415 | 30935 ft | 512 kts | 29° |
| 2026-05-07 17:29 | 24.40429 | 120.42242 | 30297 ft | 508 kts | 29° |
| 2026-05-07 17:30 | 24.43186 | 120.44173 | 29851 ft | 503 kts | 29° |
| 2026-05-07 17:30 | 24.46080 | 120.46198 | 29329 ft | 503 kts | 29° |
| 2026-05-07 17:30 | 24.49030 | 120.48263 | 28735 ft | 503 kts | 29° |
| 2026-05-07 17:30 | 24.52035 | 120.50367 | 28136 ft | 499 kts | 29° |
| 2026-05-07 17:31 | 24.55010 | 120.52452 | 27530 ft | 493 kts | 30° |
| 2026-05-07 17:31 | 24.57616 | 120.54280 | 26974 ft | 488 kts | 29° |
| 2026-05-07 17:31 | 24.60434 | 120.56258 | 26375 ft | 483 kts | 29° |
| 2026-05-07 17:31 | 24.61605 | 120.57080 | 26123 ft | 481 kts | 29° |
| 2026-05-07 17:32 | 24.62651 | 120.57814 | 25889 ft | 480 kts | 29° |